Quentin, Mississippi
Current Conditions -  °F | °C
As of 1:15 PM on Friday 24 Oct 2014 (Local Time) from K1R7 Reporting Station
Clear Clear  
Wind Chill: 70°   Ceiling: Unl
Heat Index: 70°   Visibility: 10mi
Dew Point: 48°   Wind: 9mph
Humidity: 46%   Direction: 360°N
Pressure: 30.12"   Gusts: NA
Location:  31.5295°N, 90.7634°W
Report Text: K1R7 241815Z AUTO 36008KT 10SM CLR 21/09 A3012 RMK AO2
Loading
Personal Weather Stations






























Interactive Weather Map New forecast layout! Learn more

10-Day Weather Forecast

Advertisements
Track Severe Weather on mobile